createdAt,value
2019-03-09T00:03:04.737Z,10.88
2019-03-09T00:05:08.624Z,11.93
2019-03-09T00:07:12.220Z,10.93
2019-03-09T00:09:16.244Z,12.33
2019-03-09T00:11:19.832Z,12.13
2019-03-09T00:15:26.222Z,13.95
2019-03-09T00:19:32.783Z,15.30
2019-03-09T00:23:57.392Z,17.10
2019-03-09T00:26:18.908Z,16.67
2019-03-09T00:28:24.106Z,17.32
2019-03-09T00:30:32.350Z,18.15
2019-03-09T00:32:35.937Z,17.42
2019-03-09T00:36:42.384Z,18.90
2019-03-09T00:38:46.432Z,23.30
2019-03-09T00:40:49.992Z,22.02
2019-03-09T00:44:56.456Z,26.07
2019-03-09T00:46:59.992Z,26.05
2019-03-09T00:51:06.368Z,27.25
2019-03-09T00:55:13.538Z,19.05
2019-03-09T00:57:17.058Z,16.97
2019-03-09T01:01:23.502Z,16.60
2019-03-09T01:05:29.957Z,16.90
2019-03-09T01:07:33.592Z,18.15
2019-03-09T01:11:40.003Z,16.30
2019-03-09T01:13:43.735Z,16.85
2019-03-09T01:15:47.505Z,16.35
2019-03-09T01:17:51.027Z,16.27
2019-03-09T01:21:57.400Z,15.95
2019-03-09T01:26:03.928Z,14.87
2019-03-09T01:28:07.813Z,15.28
2019-03-09T01:30:14.483Z,15.15
2019-03-09T01:32:18.128Z,15.88
2019-03-09T01:34:21.877Z,16.73
2019-03-09T01:36:25.481Z,17.48
2019-03-09T01:40:31.800Z,16.75
2019-03-09T01:44:38.248Z,19.30
2019-03-09T01:48:44.601Z,20.62
2019-03-09T01:52:50.983Z,19.07
2019-03-09T01:54:54.578Z,19.98
2019-03-09T01:59:00.998Z,18.65
2019-03-09T02:03:07.438Z,17.02
2019-03-09T02:07:14.315Z,18.97
2019-03-09T02:09:18.430Z,17.98
2019-03-09T02:11:22.073Z,17.55
2019-03-09T02:13:25.748Z,17.15
2019-03-09T02:15:29.378Z,17.10
2019-03-09T02:17:32.991Z,18.50
2019-03-09T02:19:36.619Z,17.73
2019-03-09T02:21:40.187Z,17.98
2019-03-09T02:25:46.586Z,19.77
2019-03-09T02:27:50.187Z,21.37
2019-03-09T02:29:53.785Z,22.27
2019-03-09T02:31:57.412Z,21.33
2019-03-09T02:34:01.004Z,23.30
2019-03-09T02:36:04.653Z,24.70
2019-03-09T02:38:09.841Z,24.77
2019-03-09T02:40:18.252Z,24.00
2019-03-09T02:42:23.458Z,24.80
2019-03-09T02:44:27.057Z,23.67
2019-03-09T02:46:30.678Z,21.77
2019-03-09T02:48:34.265Z,22.02
2019-03-09T02:52:42.326Z,20.97
2019-03-09T02:54:45.995Z,20.80
2019-03-09T02:56:49.601Z,22.37
2019-03-09T02:58:53.184Z,21.20
2019-03-09T03:00:58.391Z,22.15
2019-03-09T03:03:03.706Z,21.07
2019-03-09T03:05:07.793Z,21.95
2019-03-09T03:07:11.392Z,20.45
2019-03-09T03:09:14.972Z,20.62
2019-03-09T03:13:21.481Z,19.07
2019-03-09T03:15:36.097Z,18.23
2019-03-09T03:17:39.664Z,18.62
2019-03-09T03:21:46.091Z,17.92
2019-03-09T03:23:49.662Z,18.12
2019-03-09T03:27:56.297Z,19.35
2019-03-09T03:29:59.866Z,18.77
2019-03-09T03:32:03.720Z,19.15
2019-03-09T03:34:07.299Z,18.98
2019-03-09T03:38:13.732Z,17.50
2019-03-09T03:42:20.221Z,19.77
2019-03-09T03:44:23.794Z,19.25
2019-03-09T03:48:30.168Z,19.42
2019-03-09T03:50:33.724Z,18.67
2019-03-09T03:54:40.184Z,18.67
2019-03-09T03:56:43.843Z,18.98
2019-03-09T03:58:47.545Z,18.50
2019-03-09T04:00:51.269Z,17.20
2019-03-09T04:02:55.217Z,17.50
2019-03-09T04:04:58.872Z,18.48
2019-03-09T04:07:02.889Z,17.62
2019-03-09T04:09:07.118Z,17.57
2019-03-09T04:11:10.752Z,18.35
2019-03-09T04:13:14.416Z,18.35
2019-03-09T04:15:18.091Z,18.73
2019-03-09T04:17:21.716Z,17.92
2019-03-09T04:19:25.288Z,17.92
2019-03-09T04:23:31.663Z,18.55
2019-03-09T04:27:38.028Z,17.82
2019-03-09T04:31:44.587Z,18.85
2019-03-09T04:33:48.180Z,20.75
2019-03-09T04:35:51.750Z,21.40
2019-03-09T04:39:58.098Z,21.07
2019-03-09T04:44:04.618Z,18.82
2019-03-09T04:46:08.183Z,16.17
2019-03-09T04:50:15.058Z,17.25
2019-03-09T04:52:18.610Z,19.20
2019-03-09T04:56:24.967Z,17.80
2019-03-09T04:58:29.534Z,17.27
2019-03-09T05:00:33.190Z,17.87
2019-03-09T05:02:36.712Z,17.32
2019-03-09T05:06:46.842Z,18.02
2019-03-09T05:08:53.503Z,16.60
2019-03-09T05:11:00.507Z,17.80
2019-03-09T05:13:10.232Z,14.95
2019-03-09T05:15:14.648Z,14.98
2019-03-09T05:17:18.334Z,15.15
2019-03-09T05:19:21.905Z,14.53
2019-03-09T05:23:28.308Z,13.78
2019-03-09T05:25:31.865Z,14.15
2019-03-09T05:29:38.252Z,12.78
2019-03-09T05:33:44.631Z,11.83
2019-03-09T05:37:51.001Z,11.55
2019-03-09T05:41:57.426Z,11.15
2019-03-09T05:44:01.025Z,10.80
2019-03-09T05:46:04.627Z,10.45
2019-03-09T05:48:08.269Z,10.00
2019-03-09T05:50:11.866Z,10.15
2019-03-09T05:54:22.883Z,9.08
2019-03-09T05:58:29.533Z,11.05
2019-03-09T06:00:34.134Z,9.40
2019-03-09T06:02:37.755Z,8.63
2019-03-09T06:04:41.348Z,8.63
2019-03-09T06:06:44.914Z,8.90
2019-03-09T06:10:51.554Z,8.28
2019-03-09T06:12:55.054Z,7.78
2019-03-09T06:17:01.427Z,7.47
2019-03-09T06:21:07.803Z,6.72
2019-03-09T06:25:14.281Z,6.60
2019-03-09T06:27:17.848Z,6.58
2019-03-09T06:31:24.230Z,6.92
2019-03-09T06:35:31.317Z,6.50
2019-03-09T06:37:34.966Z,6.70
2019-03-09T06:39:38.540Z,6.17
2019-03-09T06:43:46.628Z,5.87
2019-03-09T06:47:53.004Z,6.55
2019-03-09T06:51:59.451Z,6.58
2019-03-09T06:54:03.034Z,6.83
2019-03-09T06:58:09.431Z,7.30
2019-03-09T07:02:26.152Z,6.15
2019-03-09T07:06:32.524Z,5.65
2019-03-09T07:10:39.132Z,5.70
2019-03-09T07:12:42.687Z,5.25
2019-03-09T07:16:59.642Z,21.65
2019-03-09T07:21:06.089Z,12.90
2019-03-09T07:23:09.718Z,7.40
2019-03-09T07:25:13.347Z,5.30
2019-03-09T07:27:16.930Z,5.30
2019-03-09T07:31:23.341Z,5.03
2019-03-09T07:35:29.743Z,4.80
2019-03-09T07:39:36.095Z,4.37
2019-03-09T07:43:42.494Z,4.87
2019-03-09T07:47:48.928Z,4.97
2019-03-09T07:51:55.340Z,3.90
2019-03-09T07:56:01.707Z,4.35
2019-03-09T08:00:11.759Z,5.10
2019-03-09T08:02:15.354Z,4.95
2019-03-09T08:06:21.812Z,5.75
2019-03-09T08:10:29.693Z,4.55
2019-03-09T08:12:33.284Z,5.40
2019-03-09T08:16:39.719Z,5.37
2019-03-09T08:18:45.221Z,5.20
2019-03-09T08:20:48.526Z,4.70
2019-03-09T08:24:54.933Z,5.65
2019-03-09T08:29:01.308Z,7.85
2019-03-09T08:33:07.668Z,5.12
2019-03-09T08:37:14.239Z,5.45
2019-03-09T08:41:20.642Z,3.37
2019-03-09T08:45:27.114Z,3.55
2019-03-09T08:49:33.441Z,3.70
2019-03-09T08:53:39.841Z,3.47
2019-03-09T08:57:46.349Z,3.47
2019-03-09T08:59:51.630Z,4.42
2019-03-09T09:01:55.176Z,3.90
2019-03-09T09:06:01.554Z,3.58
2019-03-09T09:10:10.081Z,3.92
2019-03-09T09:12:13.647Z,4.12
2019-03-09T09:16:20.025Z,4.05
2019-03-09T09:20:27.309Z,4.00
2019-03-09T09:22:30.946Z,4.72
2019-03-09T09:24:34.521Z,6.72
2019-03-09T09:28:40.936Z,7.22
2019-03-09T09:32:47.417Z,6.47
2019-03-09T09:34:50.983Z,10.50
2019-03-09T09:38:57.543Z,15.18
2019-03-09T09:41:01.208Z,11.78
2019-03-09T09:43:05.008Z,14.90
2019-03-09T09:45:11.637Z,9.48
2019-03-09T09:47:15.190Z,4.97
2019-03-09T09:51:21.578Z,6.40
2019-03-09T09:55:27.924Z,19.82
2019-03-09T09:59:34.275Z,9.48
2019-03-09T10:03:40.655Z,8.33
2019-03-09T10:07:47.082Z,6.35
2019-03-09T10:09:50.667Z,7.85
2019-03-09T10:13:57.019Z,6.62
2019-03-09T10:18:03.401Z,27.45
2019-03-09T10:24:14.085Z,5.22
2019-03-09T10:28:20.467Z,4.10
2019-03-09T10:32:27.413Z,4.03
2019-03-09T10:36:33.874Z,5.42
2019-03-09T10:38:37.459Z,12.37
2019-03-09T10:42:43.925Z,10.58
2019-03-09T10:44:49.704Z,7.42
2019-03-09T10:46:52.829Z,5.70
2019-03-09T10:50:59.177Z,9.05
2019-03-09T10:55:08.647Z,5.10
2019-03-09T10:57:12.290Z,4.80
2019-03-09T11:01:18.764Z,3.40
2019-03-09T11:03:22.394Z,6.58
2019-03-09T11:07:28.839Z,19.20
2019-03-09T11:09:32.780Z,8.90
2019-03-09T11:11:36.343Z,3.30
2019-03-09T11:15:42.736Z,3.10
2019-03-09T11:19:49.247Z,3.15
2019-03-09T11:21:52.813Z,2.90
2019-03-09T11:25:59.396Z,3.00
2019-03-09T11:30:22.105Z,3.22
2019-03-09T11:32:25.702Z,6.22
2019-03-09T11:36:32.052Z,4.08
2019-03-09T11:40:38.516Z,3.10
2019-03-09T11:44:45.048Z,3.27
2019-03-09T11:46:48.627Z,3.17
2019-03-09T11:50:55.004Z,11.90
2019-03-09T11:55:01.486Z,3.80
2019-03-09T11:57:05.347Z,4.05
2019-03-09T11:59:08.911Z,11.22
2019-03-09T12:03:15.337Z,26.97
2019-03-09T12:07:21.801Z,27.27
2019-03-09T12:11:28.448Z,6.58
2019-03-09T12:13:32.144Z,4.20
2019-03-09T12:15:35.874Z,4.37
2019-03-09T12:17:39.518Z,3.50
2019-03-09T12:21:45.876Z,3.55
2019-03-09T12:25:52.374Z,2.55
2019-03-09T12:27:55.940Z,2.55
2019-03-09T12:32:02.417Z,2.85
2019-03-09T12:36:08.908Z,2.70
2019-03-09T12:40:21.573Z,2.92
2019-03-09T12:42:25.137Z,2.75
2019-03-09T12:46:31.514Z,2.40
2019-03-09T12:50:37.891Z,3.05
2019-03-09T12:54:44.296Z,2.95
2019-03-09T12:58:50.722Z,2.98
2019-03-09T13:02:57.253Z,2.50
2019-03-09T13:07:03.708Z,2.92
2019-03-09T13:11:10.461Z,1.75
2019-03-09T13:13:14.137Z,1.60
2019-03-09T13:17:20.509Z,1.65
2019-03-09T13:21:26.895Z,1.77
2019-03-09T13:23:30.489Z,1.87
2019-03-09T13:27:36.944Z,2.12
2019-03-09T13:31:43.336Z,2.15
2019-03-09T13:35:52.175Z,2.30
2019-03-09T13:37:55.739Z,1.50
2019-03-09T13:39:59.312Z,1.80
2019-03-09T13:44:05.750Z,1.65
2019-03-09T13:48:12.217Z,1.50
2019-03-09T13:52:18.746Z,2.12
2019-03-09T13:56:25.131Z,1.65
2019-03-09T14:00:40.138Z,2.22
2019-03-09T14:02:36.835Z,2.37
2019-03-09T14:06:43.242Z,2.35
2019-03-09T14:08:46.888Z,2.27
2019-03-09T14:10:50.516Z,2.30
2019-03-09T14:14:56.929Z,2.15
2019-03-09T14:19:03.280Z,2.37
2019-03-09T14:21:06.837Z,2.22
2019-03-09T14:25:16.945Z,2.10
2019-03-09T14:27:20.512Z,2.12
2019-03-09T14:31:26.903Z,2.05
2019-03-09T14:35:33.323Z,2.05
2019-03-09T14:39:39.801Z,2.35
2019-03-09T14:43:47.712Z,2.40
2019-03-09T14:45:51.307Z,2.42
2019-03-09T14:49:57.695Z,2.00
2019-03-09T14:52:01.248Z,1.90
2019-03-09T14:56:07.745Z,1.82
2019-03-09T15:00:16.748Z,2.37
2019-03-09T15:02:20.343Z,2.40
2019-03-09T15:06:26.803Z,2.33
2019-03-09T15:10:33.303Z,3.55
2019-03-09T15:14:39.716Z,5.87
2019-03-09T15:18:46.135Z,6.20
2019-03-09T15:22:52.708Z,3.50
2019-03-09T15:24:56.279Z,2.10
2019-03-09T15:29:02.688Z,2.83
2019-03-09T15:33:09.079Z,3.05
2019-03-09T15:37:15.574Z,5.33
2019-03-09T15:39:19.271Z,3.98
2019-03-09T15:41:22.945Z,5.08
2019-03-09T15:43:26.569Z,4.25
2019-03-09T15:47:33.187Z,5.60
2019-03-09T15:49:36.774Z,4.95
2019-03-09T15:53:43.127Z,4.92
2019-03-09T15:57:49.638Z,4.30
2019-03-09T15:59:53.259Z,5.95
2019-03-09T16:03:59.609Z,5.70
2019-03-09T16:08:06.075Z,6.85
2019-03-09T16:14:16.804Z,5.45
2019-03-09T16:18:23.167Z,6.17
2019-03-09T16:22:30.078Z,7.10
2019-03-09T16:24:33.639Z,13.80
2019-03-09T16:28:40.150Z,25.00
2019-03-09T16:30:43.728Z,9.75
2019-03-09T16:34:50.173Z,7.40
2019-03-09T16:38:56.677Z,28.32
2019-03-09T16:43:03.139Z,11.48
2019-03-09T16:45:08.174Z,22.00
2019-03-09T16:47:11.735Z,10.40
2019-03-09T16:51:18.110Z,10.13
2019-03-09T16:55:24.555Z,9.35
2019-03-09T16:57:28.113Z,9.60
2019-03-09T17:01:34.560Z,6.20
2019-03-09T17:03:38.230Z,6.45
2019-03-09T17:05:41.858Z,6.67
2019-03-09T17:09:48.265Z,4.67
2019-03-09T17:11:51.852Z,5.50
2019-03-09T17:15:58.275Z,3.70
2019-03-09T17:20:06.191Z,3.58
2019-03-09T17:22:09.762Z,3.77
2019-03-09T17:26:16.094Z,3.72
2019-03-09T17:30:22.569Z,3.22
2019-03-09T17:32:26.250Z,5.33
2019-03-09T17:34:29.832Z,3.35
2019-03-09T17:38:36.207Z,5.53
2019-03-09T17:42:42.614Z,6.28
2019-03-09T17:44:46.282Z,9.33
2019-03-09T17:46:49.841Z,10.90
2019-03-09T17:50:56.225Z,12.98
2019-03-09T17:55:02.595Z,17.73
2019-03-09T17:59:08.985Z,7.80
2019-03-09T18:03:15.461Z,5.15
2019-03-09T18:05:19.960Z,5.78
2019-03-09T18:07:23.730Z,9.28
2019-03-09T18:11:30.106Z,8.48
2019-03-09T18:15:36.511Z,10.55
2019-03-09T18:19:42.895Z,11.85
2019-03-09T18:23:49.257Z,12.15
2019-03-09T18:27:55.689Z,15.55
2019-03-09T18:32:02.073Z,10.45
2019-03-09T18:36:08.432Z,20.92
2019-03-09T18:40:16.377Z,13.28
2019-03-09T18:42:19.922Z,11.50
2019-03-09T18:46:26.378Z,7.85
2019-03-09T18:48:30.099Z,6.62
2019-03-09T18:50:33.753Z,5.45
2019-03-09T18:52:37.299Z,7.60
2019-03-09T18:56:43.695Z,6.60
2019-03-09T19:00:50.045Z,10.80
2019-03-09T19:04:56.496Z,14.40
2019-03-09T19:07:00.069Z,16.00
2019-03-09T19:11:06.508Z,12.63
2019-03-09T19:13:10.067Z,13.60
2019-03-09T19:17:17.524Z,12.03
2019-03-09T19:19:21.124Z,12.53
2019-03-09T19:21:24.764Z,12.18
2019-03-09T19:23:29.698Z,11.05
2019-03-09T19:25:33.267Z,11.25
2019-03-09T19:29:39.665Z,11.55
2019-03-09T19:34:01.471Z,10.88
2019-03-09T19:36:05.179Z,11.45
2019-03-09T19:38:08.774Z,11.80
2019-03-09T19:40:16.768Z,11.48
2019-03-09T19:42:22.754Z,12.95
2019-03-09T19:44:28.777Z,12.18
2019-03-09T19:46:32.331Z,12.45
2019-03-09T19:50:38.732Z,12.73
2019-03-09T19:54:45.130Z,13.32
2019-03-09T19:56:48.757Z,12.88
2019-03-09T19:58:52.327Z,12.50
2019-03-09T20:02:58.803Z,12.28
2019-03-09T20:07:05.198Z,12.85
2019-03-09T20:09:09.033Z,10.80
2019-03-09T20:11:12.597Z,10.10
2019-03-09T20:15:20.147Z,9.20
2019-03-09T20:17:23.708Z,7.95
2019-03-09T20:21:30.069Z,8.13
2019-03-09T20:25:36.508Z,9.18
2019-03-09T20:27:40.054Z,7.87
2019-03-09T20:31:46.996Z,6.97
2019-03-09T20:33:50.633Z,9.23
2019-03-09T20:37:57.016Z,9.48
2019-03-09T20:42:03.387Z,6.05
2019-03-09T20:46:09.736Z,4.17
2019-03-09T20:50:17.526Z,3.58
2019-03-09T20:52:21.156Z,4.22
2019-03-09T20:54:24.738Z,4.08
2019-03-09T20:58:31.109Z,4.10
2019-03-09T21:02:37.483Z,5.40
2019-03-09T21:06:43.859Z,3.62
2019-03-09T21:10:50.273Z,2.55
2019-03-09T21:12:59.608Z,3.20
2019-03-09T21:15:03.408Z,3.25
2019-03-09T21:17:07.075Z,4.22
2019-03-09T21:19:10.626Z,3.52
2019-03-09T21:23:17.032Z,8.55
2019-03-09T21:27:23.762Z,1.70
2019-03-09T21:29:27.400Z,2.67
2019-03-09T21:31:30.940Z,1.57
2019-03-09T21:35:37.320Z,1.50
2019-03-09T21:39:43.693Z,1.77
2019-03-09T21:43:50.068Z,1.75
2019-03-09T21:47:56.600Z,5.72
2019-03-09T21:50:00.318Z,2.70
2019-03-09T21:52:03.987Z,2.80
2019-03-09T21:54:07.593Z,1.72
2019-03-09T21:56:11.146Z,1.90
2019-03-09T22:00:19.648Z,2.10
2019-03-09T22:02:23.307Z,2.12
2019-03-09T22:04:26.964Z,2.15
2019-03-09T22:06:30.572Z,1.92
2019-03-09T22:10:37.014Z,2.85
2019-03-09T22:12:40.748Z,3.37
2019-03-09T22:14:44.314Z,2.85
2019-03-09T22:18:52.429Z,6.50
2019-03-09T22:20:56.071Z,5.25
2019-03-09T22:22:59.669Z,7.25
2019-03-09T22:27:06.002Z,3.67
2019-03-09T22:31:12.371Z,2.42
2019-03-09T22:35:18.829Z,3.25
2019-03-09T22:37:22.387Z,4.92
2019-03-09T22:41:28.743Z,3.02
2019-03-09T22:45:35.123Z,3.12
2019-03-09T22:49:41.501Z,28.27
2019-03-09T22:53:47.902Z,4.72
2019-03-09T22:57:54.266Z,2.77
2019-03-09T23:02:00.918Z,4.53
2019-03-09T23:04:06.619Z,2.10
2019-03-09T23:06:09.963Z,3.47
2019-03-09T23:10:19.049Z,1.12
2019-03-09T23:12:22.647Z,1.50
2019-03-09T23:16:28.999Z,2.50
2019-03-09T23:20:35.402Z,4.30
2019-03-09T23:24:42.168Z,1.90
2019-03-09T23:26:45.765Z,1.87
2019-03-09T23:30:54.441Z,1.42
2019-03-09T23:32:57.583Z,1.92
2019-03-09T23:35:01.144Z,1.22
2019-03-09T23:39:08.043Z,1.67
2019-03-09T23:41:11.680Z,1.77
2019-03-09T23:43:15.264Z,1.40
2019-03-09T23:47:22.551Z,1.10
2019-03-09T23:49:26.301Z,1.22
2019-03-09T23:51:29.959Z,1.20
2019-03-09T23:53:33.601Z,1.00
2019-03-09T23:55:37.171Z,1.82
2019-03-09T23:59:43.608Z,1.10
